createdAt,value
2023-03-01T00:00:11.168Z,10.23
2023-03-01T00:02:39.819Z,9.30
2023-03-01T00:05:08.991Z,9.95
2023-03-01T00:07:39.684Z,9.65
2023-03-01T00:10:08.395Z,9.88
2023-03-01T00:12:37.593Z,9.68
2023-03-01T00:15:08.035Z,12.45
2023-03-01T00:17:36.747Z,10.10
2023-03-01T00:20:08.983Z,10.48
2023-03-01T00:22:38.499Z,10.43
2023-03-01T00:25:07.286Z,10.73
2023-03-01T00:27:35.747Z,10.32
2023-03-01T00:30:04.104Z,9.68
2023-03-01T00:32:32.480Z,10.68
2023-03-01T00:35:01.346Z,10.25
2023-03-01T00:37:29.870Z,10.80
2023-03-01T00:39:59.125Z,11.05
2023-03-01T00:42:27.640Z,9.50
2023-03-01T00:44:56.084Z,11.25
2023-03-01T00:47:24.427Z,10.52
2023-03-01T00:49:53.222Z,12.35
2023-03-01T00:52:21.981Z,11.63
2023-03-01T00:54:50.548Z,11.73
2023-03-01T00:57:20.508Z,11.07
2023-03-01T00:59:50.904Z,10.48
2023-03-01T01:02:19.515Z,10.27
2023-03-01T01:04:47.861Z,12.25
2023-03-01T01:07:18.914Z,11.35
2023-03-01T01:09:49.820Z,10.95
2023-03-01T01:12:20.249Z,10.90
2023-03-01T01:14:50.204Z,11.18
2023-03-01T01:17:18.740Z,10.93
2023-03-01T01:19:48.522Z,11.23
2023-03-01T01:22:16.816Z,11.70
2023-03-01T01:24:45.345Z,11.50
2023-03-01T01:27:13.574Z,12.25
2023-03-01T01:29:43.000Z,10.82
2023-03-01T01:32:12.766Z,10.70
2023-03-01T01:34:41.884Z,10.82
2023-03-01T01:37:10.275Z,10.43
2023-03-01T01:39:38.786Z,11.27
2023-03-01T01:42:07.162Z,11.27
2023-03-01T01:44:37.991Z,11.00
2023-03-01T01:47:10.218Z,10.73
2023-03-01T01:49:46.109Z,11.07
2023-03-01T01:52:19.912Z,11.10
2023-03-01T01:54:52.768Z,11.23
2023-03-01T01:59:54.685Z,12.02
2023-03-01T02:02:23.313Z,11.15
2023-03-01T02:04:59.612Z,12.13
2023-03-01T02:07:29.388Z,11.38
2023-03-01T02:09:57.914Z,11.57
2023-03-01T02:12:28.995Z,11.52
2023-03-01T02:14:59.900Z,10.38
2023-03-01T02:17:28.234Z,12.07
2023-03-01T02:20:09.627Z,12.20
2023-03-01T02:22:42.511Z,11.40
2023-03-01T02:27:58.314Z,11.85
2023-03-01T02:30:29.052Z,12.10
2023-03-01T02:33:04.181Z,11.93
2023-03-01T02:35:36.129Z,11.65
2023-03-01T02:38:06.603Z,12.55
2023-03-01T02:40:36.441Z,11.93
2023-03-01T02:43:10.041Z,12.35
2023-03-01T02:45:39.632Z,12.15
2023-03-01T02:48:08.000Z,12.52
2023-03-01T02:50:54.956Z,12.48
2023-03-01T02:53:30.263Z,13.00
2023-03-01T02:56:01.389Z,13.50
2023-03-01T02:58:29.983Z,12.88
2023-03-01T03:01:03.004Z,12.57
2023-03-01T03:03:31.611Z,12.00
2023-03-01T03:06:00.302Z,12.73
2023-03-01T03:08:28.712Z,11.90
2023-03-01T03:10:58.494Z,12.60
2023-03-01T03:13:29.433Z,12.20
2023-03-01T03:15:59.943Z,13.23
2023-03-01T03:18:28.795Z,13.82
2023-03-01T03:20:57.485Z,12.02
2023-03-01T03:23:26.517Z,12.90
2023-03-01T03:25:54.819Z,13.35
2023-03-01T03:28:23.088Z,12.98
2023-03-01T03:30:52.323Z,12.38
2023-03-01T03:33:21.971Z,13.73
2023-03-01T03:35:51.846Z,12.07
2023-03-01T03:38:23.028Z,12.63
2023-03-01T03:40:53.721Z,13.45
2023-03-01T03:43:23.365Z,13.30
2023-03-01T03:45:53.147Z,12.50
2023-03-01T03:48:23.268Z,12.48
2023-03-01T03:50:53.494Z,12.45
2023-03-01T03:53:22.845Z,11.85
2023-03-01T03:55:52.792Z,13.13
2023-03-01T03:58:21.798Z,13.18
2023-03-01T04:00:53.883Z,12.93
2023-03-01T04:03:24.726Z,13.55
2023-03-01T04:05:53.146Z,12.63
2023-03-01T04:08:22.157Z,13.35
2023-03-01T04:10:51.944Z,14.15
2023-03-01T04:13:22.628Z,13.90
2023-03-01T04:15:51.638Z,14.77
2023-03-01T04:18:24.781Z,13.75
2023-03-01T04:20:56.409Z,12.90
2023-03-01T04:23:29.266Z,13.93
2023-03-01T04:25:59.909Z,14.63
2023-03-01T04:28:31.518Z,14.18
2023-03-01T04:31:01.574Z,14.02
2023-03-01T04:33:33.452Z,13.82
2023-03-01T04:36:06.424Z,14.93
2023-03-01T04:38:35.154Z,13.52
2023-03-01T04:41:04.728Z,13.55
2023-03-01T04:43:33.416Z,14.40
2023-03-01T04:46:04.708Z,13.82
2023-03-01T04:48:35.012Z,14.45
2023-03-01T04:51:03.363Z,14.65
2023-03-01T04:53:32.014Z,13.80
2023-03-01T04:56:03.102Z,13.70
2023-03-01T04:58:31.640Z,15.60
2023-03-01T05:00:59.999Z,14.63
2023-03-01T05:03:29.053Z,15.05
2023-03-01T05:06:01.782Z,14.00
2023-03-01T05:08:30.171Z,14.70
2023-03-01T05:10:58.861Z,14.75
2023-03-01T05:13:27.219Z,13.82
2023-03-01T05:15:57.915Z,15.18
2023-03-01T05:18:27.256Z,14.02
2023-03-01T05:21:00.685Z,14.65
2023-03-01T05:23:30.608Z,15.18
2023-03-01T05:26:01.544Z,14.75
2023-03-01T05:28:30.668Z,16.75
2023-03-01T05:31:02.055Z,14.85
2023-03-01T05:33:31.260Z,19.13
2023-03-01T05:36:02.481Z,16.88
2023-03-01T05:38:32.337Z,16.13
2023-03-01T05:41:00.849Z,14.85
2023-03-01T05:43:30.241Z,15.45
2023-03-01T05:46:00.901Z,15.77
2023-03-01T05:48:29.435Z,14.15
2023-03-01T05:50:58.124Z,16.08
2023-03-01T05:53:27.585Z,15.45
2023-03-01T05:55:57.055Z,15.02
2023-03-01T05:58:25.415Z,14.60
2023-03-01T06:00:55.387Z,15.30
2023-03-01T06:03:24.496Z,15.20
2023-03-01T06:05:53.404Z,15.93
2023-03-01T06:08:23.066Z,15.95
2023-03-01T06:10:51.612Z,15.70
2023-03-01T06:13:21.134Z,16.25
2023-03-01T06:15:51.604Z,16.75
2023-03-01T06:18:20.036Z,15.50
2023-03-01T06:20:55.635Z,14.40
2023-03-01T06:23:26.883Z,14.68
2023-03-01T06:25:55.696Z,14.93
2023-03-01T06:28:26.528Z,13.60
2023-03-01T06:30:55.500Z,14.35
2023-03-01T06:33:25.289Z,15.40
2023-03-01T06:35:54.043Z,15.60
2023-03-01T06:38:22.702Z,14.95
2023-03-01T06:40:57.485Z,16.98
2023-03-01T06:43:27.163Z,15.95
2023-03-01T06:45:55.764Z,15.70
2023-03-01T06:48:26.274Z,15.63
2023-03-01T06:50:57.700Z,15.32
2023-03-01T06:53:25.994Z,17.10
2023-03-01T06:55:57.064Z,16.92
2023-03-01T06:58:27.570Z,16.58
2023-03-01T07:00:55.905Z,15.55
2023-03-01T07:03:24.980Z,16.77
2023-03-01T07:05:53.665Z,16.95
2023-03-01T07:08:22.082Z,15.55
2023-03-01T07:10:52.678Z,15.35
2023-03-01T07:13:21.441Z,16.05
2023-03-01T07:15:51.308Z,15.50
2023-03-01T07:18:21.969Z,16.08
2023-03-01T07:20:50.893Z,15.05
2023-03-01T07:23:21.019Z,16.45
2023-03-01T07:25:54.088Z,14.95
2023-03-01T07:28:22.556Z,15.43
2023-03-01T07:30:54.437Z,16.35
2023-03-01T07:33:22.842Z,16.00
2023-03-01T07:35:51.443Z,14.80
2023-03-01T07:38:20.520Z,15.00
2023-03-01T07:40:49.272Z,14.05
2023-03-01T07:43:18.786Z,13.30
2023-03-01T07:45:47.174Z,15.50
2023-03-01T07:48:16.441Z,14.93
2023-03-01T07:50:44.779Z,15.23
2023-03-01T07:53:13.679Z,16.00
2023-03-01T07:55:42.303Z,16.10
2023-03-01T07:58:10.636Z,14.48
2023-03-01T08:00:39.027Z,14.07
2023-03-01T08:03:10.664Z,14.10
2023-03-01T08:05:41.783Z,14.57
2023-03-01T08:08:10.208Z,14.48
2023-03-01T08:10:39.533Z,14.60
2023-03-01T08:13:08.114Z,15.57
2023-03-01T08:15:36.781Z,14.15
2023-03-01T08:18:07.595Z,14.95
2023-03-01T08:20:36.749Z,13.48
2023-03-01T08:23:06.517Z,14.32
2023-03-01T08:25:36.048Z,15.38
2023-03-01T08:28:04.801Z,16.10
2023-03-01T08:30:33.463Z,14.65
2023-03-01T08:33:01.895Z,14.85
2023-03-01T08:35:32.375Z,16.77
2023-03-01T08:38:01.045Z,14.27
2023-03-01T08:40:30.961Z,15.73
2023-03-01T08:43:00.908Z,14.98
2023-03-01T08:45:30.172Z,14.23
2023-03-01T08:47:59.019Z,14.63
2023-03-01T08:50:27.615Z,13.80
2023-03-01T08:52:56.378Z,15.52
2023-03-01T08:55:24.754Z,14.57
2023-03-01T08:57:54.073Z,15.95
2023-03-01T09:00:24.160Z,15.00
2023-03-01T09:02:53.055Z,15.18
2023-03-01T09:05:21.333Z,14.90
2023-03-01T09:07:49.959Z,13.95
2023-03-01T09:10:19.323Z,14.52
2023-03-01T09:12:47.781Z,13.80
2023-03-01T09:15:17.522Z,14.55
2023-03-01T09:17:45.965Z,13.88
2023-03-01T09:20:14.893Z,14.20
2023-03-01T09:22:45.104Z,14.98
2023-03-01T09:25:13.634Z,15.15
2023-03-01T09:27:44.522Z,14.73
2023-03-01T09:30:13.880Z,14.48
2023-03-01T09:32:45.853Z,15.98
2023-03-01T09:35:14.346Z,14.65
2023-03-01T09:37:44.397Z,14.18
2023-03-01T09:40:18.607Z,15.45
2023-03-01T09:42:57.477Z,15.55
2023-03-01T09:45:32.067Z,13.40
2023-03-01T09:48:03.914Z,15.35
2023-03-01T09:50:40.712Z,15.52
2023-03-01T09:53:13.934Z,15.32
2023-03-01T09:55:47.276Z,16.27
2023-03-01T09:58:38.087Z,16.30
2023-03-01T10:01:21.901Z,16.88
2023-03-01T10:04:21.951Z,15.68
2023-03-01T10:06:59.560Z,14.93
2023-03-01T10:09:28.209Z,15.40
2023-03-01T10:11:59.428Z,15.43
2023-03-01T10:14:34.504Z,16.25
2023-03-01T10:17:06.577Z,15.27
2023-03-01T10:19:42.302Z,16.50
2023-03-01T10:22:17.831Z,16.05
2023-03-01T10:24:47.940Z,15.85
2023-03-01T10:27:24.314Z,14.95
2023-03-01T10:30:00.469Z,15.80
2023-03-01T10:32:32.313Z,14.82
2023-03-01T10:35:02.488Z,16.30
2023-03-01T10:37:31.052Z,16.15
2023-03-01T10:40:06.909Z,15.40
2023-03-01T10:42:37.875Z,16.48
2023-03-01T10:45:32.458Z,15.65
2023-03-01T10:48:08.181Z,15.23
2023-03-01T10:50:41.300Z,16.00
2023-03-01T10:53:24.770Z,15.88
2023-03-01T10:56:04.233Z,14.80
2023-03-01T10:58:33.643Z,15.55
2023-03-01T11:01:03.476Z,16.88
2023-03-01T11:03:34.440Z,16.02
2023-03-01T11:06:24.495Z,15.65
2023-03-01T11:08:55.155Z,15.25
2023-03-01T11:11:28.604Z,15.35
2023-03-01T11:13:59.282Z,16.42
2023-03-01T11:16:37.108Z,15.10
2023-03-01T11:19:21.509Z,15.80
2023-03-01T11:21:57.236Z,15.48
2023-03-01T11:24:31.743Z,15.77
2023-03-01T11:27:05.463Z,17.35
2023-03-01T11:29:48.406Z,16.45
2023-03-01T11:32:18.878Z,15.85
2023-03-01T11:34:57.150Z,16.05
2023-03-01T11:37:35.353Z,15.88
2023-03-01T11:40:14.438Z,15.38
2023-03-01T11:42:57.183Z,15.23
2023-03-01T11:45:27.306Z,15.63
2023-03-01T11:48:11.757Z,15.80
2023-03-01T11:50:45.699Z,16.80
2023-03-01T11:53:34.965Z,15.98
2023-03-01T11:56:12.228Z,16.77
2023-03-01T11:59:05.119Z,14.98
2023-03-01T12:01:44.339Z,16.13
2023-03-01T12:04:53.290Z,15.88
2023-03-01T12:07:26.770Z,15.43
2023-03-01T12:10:18.180Z,15.00
2023-03-01T12:13:06.241Z,15.60
2023-03-01T12:16:10.185Z,16.08
2023-03-01T12:18:57.950Z,16.10
2023-03-01T12:21:42.093Z,15.57
2023-03-01T12:24:29.899Z,16.45
2023-03-01T12:27:17.208Z,15.32
2023-03-01T12:30:00.033Z,15.48
2023-03-01T12:32:43.237Z,15.15
2023-03-01T12:35:30.827Z,14.98
2023-03-01T12:38:08.823Z,14.45
2023-03-01T12:40:52.913Z,15.38
2023-03-01T12:43:34.219Z,13.88
2023-03-01T12:46:21.871Z,15.23
2023-03-01T12:49:01.957Z,15.13
2023-03-01T12:51:35.315Z,15.95
2023-03-01T12:54:13.907Z,14.52
2023-03-01T12:56:42.578Z,14.13
2023-03-01T12:59:20.186Z,15.43
2023-03-01T13:01:54.818Z,13.52
2023-03-01T13:04:41.028Z,13.30
2023-03-01T13:07:23.808Z,15.25
2023-03-01T13:10:02.850Z,14.52
2023-03-01T13:12:55.208Z,14.63
2023-03-01T13:15:36.144Z,12.15
2023-03-01T13:18:06.859Z,14.75
2023-03-01T13:20:47.970Z,13.93
2023-03-01T13:23:28.175Z,14.70
2023-03-01T13:26:13.562Z,13.57
2023-03-01T13:28:57.191Z,14.55
2023-03-01T13:32:05.312Z,13.23
2023-03-01T13:34:53.795Z,13.65
2023-03-01T13:37:43.103Z,13.13
2023-03-01T13:40:59.868Z,13.27
2023-03-01T13:43:34.299Z,12.88
2023-03-01T13:46:04.855Z,12.35
2023-03-01T13:48:39.206Z,12.57
2023-03-01T13:51:16.487Z,12.10
2023-03-01T13:53:49.961Z,12.75
2023-03-01T13:56:26.554Z,13.43
2023-03-01T13:58:59.487Z,13.25
2023-03-01T14:01:31.895Z,13.13
2023-03-01T14:04:01.308Z,13.02
2023-03-01T14:06:32.543Z,12.70
2023-03-01T14:09:14.617Z,12.25
2023-03-01T14:12:24.003Z,12.43
2023-03-01T14:15:00.508Z,12.95
2023-03-01T14:17:54.762Z,12.02
2023-03-01T14:20:26.654Z,13.00
2023-03-01T14:22:58.352Z,11.55
2023-03-01T14:25:29.249Z,12.15
2023-03-01T14:28:04.572Z,11.65
2023-03-01T14:30:37.250Z,13.05
2023-03-01T14:33:08.625Z,11.82
2023-03-01T14:35:38.873Z,11.00
2023-03-01T14:38:08.556Z,11.02
2023-03-01T14:40:39.324Z,12.00
2023-03-01T14:43:13.777Z,11.70
2023-03-01T14:45:42.491Z,11.50
2023-03-01T14:48:11.658Z,11.38
2023-03-01T14:50:45.577Z,11.38
2023-03-01T14:53:21.371Z,11.95
2023-03-01T14:55:54.418Z,11.15
2023-03-01T15:00:55.036Z,11.30
2023-03-01T15:03:29.742Z,11.63
2023-03-01T15:05:58.956Z,12.35
2023-03-01T15:08:35.212Z,11.15
2023-03-01T15:11:09.014Z,11.43
2023-03-01T15:13:40.388Z,10.95
2023-03-01T15:16:12.744Z,10.50
2023-03-01T15:18:47.047Z,11.52
2023-03-01T15:21:21.726Z,11.52
2023-03-01T15:23:57.723Z,11.13
2023-03-01T15:26:42.618Z,10.85
2023-03-01T15:29:19.810Z,11.15
2023-03-01T15:31:58.218Z,10.18
2023-03-01T15:34:28.006Z,10.00
2023-03-01T15:37:00.272Z,10.35
2023-03-01T15:39:45.041Z,10.87
2023-03-01T15:42:18.758Z,11.18
2023-03-01T15:44:48.129Z,10.82
2023-03-01T15:47:32.647Z,11.13
2023-03-01T15:50:04.345Z,11.30
2023-03-01T15:52:43.834Z,10.75
2023-03-01T15:55:25.663Z,9.93
2023-03-01T15:58:02.052Z,10.15
2023-03-01T16:00:37.546Z,11.27
2023-03-01T16:03:31.386Z,11.20
2023-03-01T16:06:07.515Z,10.52
2023-03-01T16:08:36.972Z,10.35
2023-03-01T16:11:06.863Z,9.77
2023-03-01T16:13:43.401Z,9.98
2023-03-01T16:16:16.519Z,11.40
2023-03-01T16:21:22.930Z,9.82
2023-03-01T16:23:52.660Z,10.07
2023-03-01T16:26:29.705Z,10.00
2023-03-01T16:28:59.085Z,9.82
2023-03-01T16:31:28.228Z,10.73
2023-03-01T16:34:02.702Z,10.20
2023-03-01T16:36:31.560Z,9.48
2023-03-01T16:39:04.060Z,9.07
2023-03-01T16:41:44.341Z,10.25
2023-03-01T16:44:12.737Z,10.32
2023-03-01T16:46:45.182Z,9.77
2023-03-01T16:49:17.120Z,10.57
2023-03-01T16:51:47.421Z,9.98
2023-03-01T16:54:17.776Z,11.45
2023-03-01T16:56:50.461Z,11.57
2023-03-01T16:59:20.383Z,10.68
2023-03-01T17:01:53.376Z,11.93
2023-03-01T17:06:51.995Z,11.55
2023-03-01T17:09:23.373Z,10.52
2023-03-01T17:11:55.261Z,9.80
2023-03-01T17:14:24.392Z,10.40
2023-03-01T17:16:55.307Z,9.77
2023-03-01T17:19:26.861Z,10.10
2023-03-01T17:21:56.079Z,10.15
2023-03-01T17:24:25.478Z,9.52
2023-03-01T17:26:55.134Z,10.25
2023-03-01T17:29:23.971Z,10.05
2023-03-01T17:31:55.028Z,11.10
2023-03-01T17:34:23.880Z,9.57
2023-03-01T17:36:52.820Z,10.95
2023-03-01T17:39:25.737Z,13.50
2023-03-01T17:42:04.506Z,14.45
2023-03-01T17:44:34.852Z,13.57
2023-03-01T17:47:05.774Z,14.73
2023-03-01T17:49:35.146Z,13.50
2023-03-01T17:52:05.081Z,13.40
2023-03-01T17:54:34.648Z,13.43
2023-03-01T17:57:06.445Z,12.70
2023-03-01T17:59:37.935Z,12.27
2023-03-01T18:02:07.787Z,13.35
2023-03-01T18:04:37.344Z,13.80
2023-03-01T18:07:05.631Z,12.60
2023-03-01T18:09:35.806Z,14.20
2023-03-01T18:12:09.407Z,16.48
2023-03-01T18:14:40.343Z,15.48
2023-03-01T18:17:12.097Z,16.60
2023-03-01T18:19:42.866Z,15.18
2023-03-01T18:22:11.196Z,16.02
2023-03-01T18:24:43.171Z,16.05
2023-03-01T18:27:15.184Z,15.38
2023-03-01T18:29:43.527Z,12.70
2023-03-01T18:32:12.627Z,13.38
2023-03-01T18:34:40.892Z,13.57
2023-03-01T18:37:10.144Z,11.88
2023-03-01T18:39:41.838Z,14.30
2023-03-01T18:42:10.638Z,14.27
2023-03-01T18:44:41.049Z,15.57
2023-03-01T18:47:10.251Z,13.68
2023-03-01T18:49:41.157Z,12.93
2023-03-01T18:52:13.375Z,12.88
2023-03-01T18:54:42.936Z,13.57
2023-03-01T18:57:11.643Z,13.63
2023-03-01T18:59:41.373Z,12.40
2023-03-01T19:02:09.975Z,12.35
2023-03-01T19:04:38.489Z,12.73
2023-03-01T19:07:08.260Z,13.35
2023-03-01T19:09:37.132Z,14.38
2023-03-01T19:12:06.320Z,15.32
2023-03-01T19:14:37.450Z,14.27
2023-03-01T19:17:09.576Z,14.13
2023-03-01T19:19:37.904Z,13.35
2023-03-01T19:22:07.707Z,15.55
2023-03-01T19:24:37.689Z,19.38
2023-03-01T19:27:07.068Z,30.30
2023-03-01T19:29:35.609Z,24.20
2023-03-01T19:32:07.031Z,27.95
2023-03-01T19:34:38.358Z,26.88
2023-03-01T19:37:06.944Z,21.85
2023-03-01T19:39:35.375Z,15.95
2023-03-01T19:42:13.093Z,15.80
2023-03-01T19:44:42.644Z,15.82
2023-03-01T19:47:14.673Z,16.30
2023-03-01T19:49:45.534Z,16.63
2023-03-01T19:52:16.376Z,14.50
2023-03-01T19:54:45.855Z,13.23
2023-03-01T19:57:17.847Z,13.95
2023-03-01T19:59:46.602Z,14.52
2023-03-01T20:02:16.012Z,14.45
2023-03-01T20:04:47.053Z,15.63
2023-03-01T20:07:15.667Z,14.18
2023-03-01T20:09:47.015Z,13.77
2023-03-01T20:12:15.590Z,13.77
2023-03-01T20:14:44.614Z,13.18
2023-03-01T20:17:14.406Z,13.70
2023-03-01T20:19:45.088Z,13.55
2023-03-01T20:22:17.355Z,13.23
2023-03-01T20:24:46.741Z,13.82
2023-03-01T20:27:17.772Z,13.18
2023-03-01T20:29:47.227Z,15.10
2023-03-01T20:32:18.339Z,13.50
2023-03-01T20:34:48.513Z,12.85
2023-03-01T20:37:17.385Z,13.18
2023-03-01T20:39:46.481Z,14.05
2023-03-01T20:42:15.878Z,12.60
2023-03-01T20:44:45.687Z,13.23
2023-03-01T20:47:15.603Z,12.82
2023-03-01T20:49:44.033Z,13.88
2023-03-01T20:52:18.325Z,13.80
2023-03-01T20:54:46.595Z,12.48
2023-03-01T20:57:15.628Z,13.90
2023-03-01T20:59:45.662Z,12.48
2023-03-01T21:02:16.504Z,13.55
2023-03-01T21:04:45.499Z,11.90
2023-03-01T21:07:16.963Z,12.48
2023-03-01T21:09:46.007Z,12.60
2023-03-01T21:12:16.377Z,13.60
2023-03-01T21:14:44.681Z,14.20
2023-03-01T21:17:16.566Z,13.15
2023-03-01T21:19:46.151Z,12.23
2023-03-01T21:22:16.791Z,12.60
2023-03-01T21:24:45.355Z,13.68
2023-03-01T21:27:13.704Z,12.93
2023-03-01T21:29:45.010Z,13.90
2023-03-01T21:32:16.035Z,12.77
2023-03-01T21:34:45.485Z,13.70
2023-03-01T21:37:13.701Z,13.68
2023-03-01T21:39:43.340Z,13.00
2023-03-01T21:42:11.634Z,12.73
2023-03-01T21:44:40.122Z,14.57
2023-03-01T21:47:10.353Z,13.40
2023-03-01T21:49:39.384Z,14.02
2023-03-01T21:52:07.664Z,13.65
2023-03-01T21:54:36.021Z,14.25
2023-03-01T21:57:08.654Z,13.27
2023-03-01T21:59:38.040Z,13.80
2023-03-01T22:02:06.922Z,13.10
2023-03-01T22:04:37.912Z,13.05
2023-03-01T22:07:06.501Z,13.45
2023-03-01T22:09:39.085Z,13.70
2023-03-01T22:12:09.297Z,13.73
2023-03-01T22:14:37.916Z,12.50
2023-03-01T22:17:06.968Z,12.80
2023-03-01T22:19:35.772Z,14.65
2023-03-01T22:22:04.366Z,14.15
2023-03-01T22:24:33.076Z,13.23
2023-03-01T22:27:01.418Z,12.93
2023-03-01T22:29:31.466Z,13.20
2023-03-01T22:32:00.436Z,13.30
2023-03-01T22:34:29.235Z,13.57
2023-03-01T22:36:58.600Z,13.45
2023-03-01T22:39:27.387Z,13.77
2023-03-01T22:41:56.078Z,14.40
2023-03-01T22:44:25.432Z,13.82
2023-03-01T22:46:55.373Z,13.05
2023-03-01T22:49:24.007Z,13.95
2023-03-01T22:51:53.244Z,14.15
2023-03-01T22:54:22.820Z,12.90
2023-03-01T22:56:52.647Z,13.57
2023-03-01T22:59:23.481Z,13.02
2023-03-01T23:01:52.486Z,12.50
2023-03-01T23:04:23.316Z,13.38
2023-03-01T23:06:54.014Z,13.13
2023-03-01T23:09:32.664Z,13.30
2023-03-01T23:12:06.641Z,13.18
2023-03-01T23:14:35.241Z,12.55
2023-03-01T23:17:03.845Z,15.43
2023-03-01T23:19:33.486Z,12.52
2023-03-01T23:22:06.317Z,13.95
2023-03-01T23:24:38.145Z,14.20
2023-03-01T23:27:06.753Z,12.52
2023-03-01T23:29:37.720Z,14.13
2023-03-01T23:32:06.323Z,12.77
2023-03-01T23:34:38.022Z,14.23
2023-03-01T23:37:06.755Z,14.57
2023-03-01T23:39:35.399Z,14.60
2023-03-01T23:42:03.856Z,12.85
2023-03-01T23:44:32.525Z,13.73
2023-03-01T23:47:01.969Z,13.73
2023-03-01T23:49:32.835Z,13.45
2023-03-01T23:52:03.906Z,13.20
2023-03-01T23:54:32.577Z,14.48
2023-03-01T23:57:03.803Z,13.50
2023-03-01T23:59:35.121Z,14.45
